Time;durP1;ratioP1;P1;durP2;ratioP2;P2;SDS_P1;SDS_P2;PMS_P1;PMS_P2;Temp;Humidity;BMP_temperature;BMP_pressure;BME280_temperature;BME280_humidity;BME280_pressure;Samples;Min_cycle;Max_cycle;Signal;HPM_P1;HPM_P2
2023/02/27 00:02:26;;;;;;;6.28;1.30;;;;;;;5.73;75.29;102703.28;4974944;28;20134;-47
2023/02/27 00:04:53;;;;;;;5.70;1.30;;;;;;;5.73;75.19;102708.78;4966898;28;20126;-47
2023/02/27 00:07:24;;;;;;;6.07;1.23;;;;;;;5.74;75.35;102710.44;4969315;28;20050;-47
2023/02/27 00:09:52;;;;;;;6.50;1.50;;;;;;;5.77;75.41;102715.41;4971512;28;20047;-47
2023/02/27 00:12:19;;;;;;;3.88;1.17;;;;;;;5.81;75.74;102711.03;4971151;28;20050;-47
2023/02/27 00:14:45;;;;;;;5.47;1.20;;;;;;;5.84;75.53;102713.25;4970709;28;20047;-48
2023/02/27 00:17:12;;;;;;;7.07;1.77;;;;;;;5.85;75.42;102720.44;4971631;28;20647;-47
2023/02/27 00:19:39;;;;;;;3.97;1.42;;;;;;;5.85;75.50;102709.47;4971262;28;20050;-49
2023/02/27 00:22:05;;;;;;;6.38;0.70;;;;;;;5.84;75.39;102711.34;4969343;28;20497;-47
2023/02/27 00:24:32;;;;;;;9.65;1.50;;;;;;;5.84;75.62;102716.00;4970585;28;20408;-47
2023/02/27 00:26:58;;;;;;;4.28;1.23;;;;;;;5.87;75.26;102704.50;4971268;28;20046;-48
2023/02/27 00:29:26;;;;;;;8.27;1.55;;;;;;;5.88;75.37;102708.91;4967753;28;20095;-48
2023/02/27 00:31:53;;;;;;;3.80;1.58;;;;;;;5.94;75.55;102710.59;4970147;28;20105;-48
2023/02/27 00:34:20;;;;;;;4.47;0.90;;;;;;;5.99;75.29;102718.88;4971028;28;20057;-54
2023/02/27 00:36:48;;;;;;;2.28;1.02;;;;;;;6.02;75.30;102715.59;4971407;28;20141;-47
2023/02/27 00:39:15;;;;;;;3.40;1.42;;;;;;;6.05;74.87;102715.06;4962920;28;20403;-49
2023/02/27 00:41:41;;;;;;;4.28;0.98;;;;;;;6.09;75.21;102717.00;4970506;28;20523;-47
2023/02/27 00:44:08;;;;;;;3.03;0.93;;;;;;;6.12;74.96;102712.88;4970212;28;20050;-48
2023/02/27 00:46:34;;;;;;;11.15;3.17;;;;;;;6.15;74.87;102704.09;4964736;28;20047;-48
2023/02/27 00:49:01;;;;;;;4.53;0.65;;;;;;;6.17;75.18;102704.66;4964425;28;20121;-52
2023/02/27 00:51:28;;;;;;;10.38;1.48;;;;;;;6.19;74.95;102702.47;4953747;28;20409;-48
2023/02/27 00:53:55;;;;;;;4.22;0.80;;;;;;;6.21;74.90;102714.03;4970345;28;20078;-50
2023/02/27 00:56:22;;;;;;;4.93;0.98;;;;;;;6.23;74.90;102713.75;4968743;28;20089;-49
2023/02/27 00:58:48;;;;;;;2.67;1.08;;;;;;;6.25;75.08;102706.09;4957458;28;20087;-47
2023/02/27 01:01:15;;;;;;;6.57;1.00;;;;;;;6.24;74.74;102710.75;4970320;28;20054;-48
2023/02/27 01:03:42;;;;;;;6.03;1.08;;;;;;;6.25;74.94;102717.91;4981980;28;20577;-47
2023/02/27 01:06:09;;;;;;;4.00;0.85;;;;;;;6.24;74.61;102710.75;4970901;28;20039;-47
2023/02/27 01:08:35;;;;;;;4.47;0.80;;;;;;;6.23;74.71;102725.59;4970239;28;20050;-47
2023/02/27 01:11:02;;;;;;;2.22;0.82;;;;;;;6.20;74.76;102723.38;4970097;28;20404;-47
2023/02/27 01:13:29;;;;;;;6.85;1.05;;;;;;;6.14;74.93;102717.03;4961157;28;20055;-47
2023/02/27 01:15:56;;;;;;;3.20;0.73;;;;;;;6.09;74.41;102719.75;4970811;28;20489;-47
2023/02/27 01:18:22;;;;;;;2.13;0.80;;;;;;;6.01;74.73;102724.94;4969501;28;20505;-48
2023/02/27 01:20:53;;;;;;;6.35;1.02;;;;;;;5.95;74.58;102717.75;4970073;28;20134;-47
2023/02/27 01:23:21;;;;;;;2.58;0.90;;;;;;;5.89;74.68;102718.81;4969689;28;20042;-52
2023/02/27 01:25:49;;;;;;;3.65;0.52;;;;;;;5.83;74.88;102715.16;4970718;28;20074;-47
2023/02/27 01:28:15;;;;;;;4.82;1.05;;;;;;;5.77;74.47;102718.97;4969828;28;20048;-47
2023/02/27 01:30:42;;;;;;;2.83;1.40;;;;;;;5.73;74.83;102722.53;4971072;28;20056;-47
2023/02/27 01:33:09;;;;;;;5.18;1.15;;;;;;;5.70;75.17;102725.78;4969806;28;20043;-48
2023/02/27 01:35:36;;;;;;;2.70;0.70;;;;;;;5.68;74.94;102727.97;4968681;28;20050;-47
2023/02/27 01:38:03;;;;;;;2.17;1.13;;;;;;;5.66;75.22;102720.03;4970005;28;20412;-47
2023/02/27 01:40:36;;;;;;;6.30;1.73;;;;;;;5.66;75.16;102716.44;4968887;28;20057;-47
2023/02/27 01:43:04;;;;;;;5.72;1.13;;;;;;;5.67;75.21;102715.31;4970005;28;20130;-46
2023/02/27 01:45:38;;;;;;;6.40;1.15;;;;;;;5.69;75.47;102713.16;4968816;28;20089;-47
2023/02/27 01:48:13;;;;;;;3.95;0.88;;;;;;;5.73;75.59;102717.84;4960069;28;20101;-46
2023/02/27 01:51:10;;;;;;;3.35;1.00;;;;;;;5.76;75.52;102716.50;4969837;28;20039;-46
2023/02/27 01:53:39;;;;;;;1.60;0.90;;;;;;;5.80;75.29;102714.91;4970259;28;20515;-49
2023/02/27 01:56:15;;;;;;;6.53;1.25;;;;;;;5.81;75.76;102720.13;4969797;28;20054;-50
2023/02/27 01:58:43;;;;;;;7.03;1.20;;;;;;;5.85;75.25;102720.44;4969899;28;20134;-48
2023/02/27 02:01:09;;;;;;;9.48;1.70;;;;;;;5.89;75.39;102721.56;4969364;28;20051;-49
2023/02/27 02:03:44;;;;;;;4.93;1.58;;;;;;;5.92;75.40;102726.53;4971854;28;20058;-47
2023/02/27 02:06:11;;;;;;;9.75;1.35;;;;;;;5.93;75.70;102726.25;4957748;28;20140;-48
2023/02/27 02:08:42;;;;;;;5.05;1.05;;;;;;;5.94;75.58;102721.59;4968930;28;20090;-48
2023/02/27 02:11:11;;;;;;;6.68;1.08;;;;;;;5.97;75.80;102726.56;4959218;28;20035;-48
2023/02/27 02:13:40;;;;;;;7.50;1.10;;;;;;;5.99;75.74;102729.84;4969874;28;20051;-47
2023/02/27 02:16:44;;;;;;;8.73;1.30;;;;;;;6.01;75.77;102734.00;4969817;28;20134;-47
2023/02/27 02:19:33;;;;;;;5.65;1.42;;;;;;;6.01;75.69;102731.25;4969740;28;20448;-47
2023/02/27 02:22:02;;;;;;;4.28;1.58;;;;;;;6.02;75.52;102723.84;4960013;28;20053;-47
2023/02/27 02:24:59;;;;;;;4.28;0.63;;;;;;;6.04;75.69;102721.63;4969500;28;20061;-48
2023/02/27 02:27:38;;;;;;;8.75;1.42;;;;;;;6.04;75.84;102710.63;4969912;28;20043;-52
2023/02/27 02:30:34;;;;;;;3.72;0.75;;;;;;;6.04;75.92;102718.88;4974351;28;20073;-49
2023/02/27 02:33:29;;;;;;;2.58;1.05;;;;;;;6.04;75.65;102716.13;4968381;28;20413;-48
2023/02/27 02:36:18;;;;;;;12.95;2.03;;;;;;;6.03;75.73;102720.84;4969362;28;20051;-48
2023/02/27 02:38:51;;;;;;;6.03;1.08;;;;;;;6.01;75.81;102719.44;4966050;28;20047;-49
2023/02/27 02:41:48;;;;;;;5.00;1.23;;;;;;;6.02;75.70;102721.91;4956274;28;20149;-47
2023/02/27 02:44:18;;;;;;;5.70;0.80;;;;;;;6.01;75.92;102727.69;4969073;28;20058;-47
2023/02/27 02:46:58;;;;;;;6.28;1.85;;;;;;;6.00;75.77;102726.03;4970152;28;20074;-49
2023/02/27 02:49:52;;;;;;;7.85;1.55;;;;;;;6.00;75.55;102723.28;4963515;28;20042;-47
2023/02/27 02:52:18;;;;;;;7.32;0.85;;;;;;;5.97;75.51;102721.06;4972440;28;20063;-48
2023/02/27 02:55:03;;;;;;;2.42;0.98;;;;;;;5.92;75.68;102726.53;4968714;28;20051;-47
2023/02/27 02:57:39;;;;;;;5.80;1.23;;;;;;;5.88;75.50;102717.97;4969802;28;20046;-47
2023/02/27 03:02:46;;;;;;;3.83;1.10;;;;;;;5.77;75.76;102715.41;5080636;23;20058;-47
2023/02/27 03:05:21;;;;;;;6.30;1.58;;;;;;;5.72;75.41;102723.63;4992135;28;20042;-47
2023/02/27 03:07:56;;;;;;;4.32;0.90;;;;;;;5.67;75.28;102723.56;4962565;28;20408;-47
2023/02/27 03:10:29;;;;;;;3.35;1.02;;;;;;;5.61;75.51;102727.41;4992446;28;20046;-49
2023/02/27 03:13:07;;;;;;;6.03;1.50;;;;;;;5.57;75.53;102726.25;4987932;28;20050;-47
2023/02/27 03:15:42;;;;;;;2.17;1.23;;;;;;;5.54;75.97;102728.44;4992138;28;20055;-46
2023/02/27 03:18:19;;;;;;;6.03;1.70;;;;;;;5.51;75.82;102723.47;4992046;28;20499;-47
2023/02/27 03:20:56;;;;;;;8.82;2.65;;;;;;;5.51;76.14;102714.38;4979483;28;20105;-46
2023/02/27 03:23:37;;;;;;;4.35;2.10;;;;;;;5.54;76.17;102716.63;4991704;28;20048;-46
2023/02/27 03:26:05;;;;;;;7.60;2.38;;;;;;;5.56;76.18;102719.91;4975216;28;20046;-49
2023/02/27 03:28:37;;;;;;;9.52;1.98;;;;;;;5.61;75.99;102727.41;4989526;28;20052;-53
2023/02/27 03:31:22;;;;;;;6.97;1.83;;;;;;;5.63;76.38;102723.28;4996756;28;20064;-49
2023/02/27 03:33:54;;;;;;;6.28;1.75;;;;;;;5.65;76.23;102728.50;4980253;28;20396;-48
2023/02/27 03:36:57;;;;;;;8.57;1.65;;;;;;;5.68;76.05;102734.31;4991230;28;20034;-47
2023/02/27 03:39:43;;;;;;;4.45;1.80;;;;;;;5.71;76.25;102727.47;4991792;28;20050;-47
2023/02/27 03:42:24;;;;;;;6.78;1.50;;;;;;;5.74;75.78;102726.94;4991721;28;20042;-47
2023/02/27 03:45:06;;;;;;;9.93;1.38;;;;;;;5.77;75.92;102729.16;4990215;28;20047;-47
2023/02/27 03:47:34;;;;;;;1.85;1.05;;;;;;;5.80;76.14;102728.63;4987018;28;20818;-47
2023/02/27 03:50:00;;;;;;;2.83;1.08;;;;;;;5.80;75.81;102725.88;4991314;28;20731;-49
2023/02/27 03:52:28;;;;;;;6.30;1.58;;;;;;;5.82;75.93;102730.03;4991285;28;20443;-47
2023/02/27 03:55:07;;;;;;;4.32;1.20;;;;;;;5.83;75.95;102737.16;4991350;28;20144;-49
2023/02/27 03:57:35;;;;;;;6.93;1.40;;;;;;;5.84;75.88;102732.50;4991396;28;20046;-47
2023/02/27 04:00:05;;;;;;;3.92;1.27;;;;;;;5.86;75.62;102741.31;4991378;28;20137;-47
2023/02/27 04:02:32;;;;;;;6.38;0.90;;;;;;;5.87;75.77;102732.00;4991428;28;20046;-49
2023/02/27 04:04:59;;;;;;;2.60;1.15;;;;;;;5.88;75.63;102736.38;4982710;28;20093;-47
2023/02/27 04:07:36;;;;;;;4.15;0.77;;;;;;;5.88;75.64;102730.88;4990972;28;20046;-47
2023/02/27 04:10:40;;;;;;;5.88;1.65;;;;;;;5.88;75.50;102728.97;4991002;28;20054;-48
2023/02/27 04:13:09;;;;;;;5.70;1.23;;;;;;;5.88;75.31;102709.72;4982509;28;20125;-49
2023/02/27 04:15:45;;;;;;;3.15;0.75;;;;;;;5.88;75.12;102719.91;4973456;28;20073;-47
2023/02/27 04:18:29;;;;;;;3.28;0.88;;;;;;;5.89;75.00;102721.56;4990957;28;20104;-46
2023/02/27 04:21:04;;;;;;;3.95;1.02;;;;;;;5.89;75.08;102724.31;4967533;28;20050;-47
2023/02/27 04:23:53;;;;;;;4.00;0.88;;;;;;;5.90;74.70;102709.47;4978354;28;20054;-50
2023/02/27 04:26:26;;;;;;;1.35;1.17;;;;;;;5.88;74.75;102728.97;4991191;28;20051;-53
2023/02/27 04:29:05;;;;;;;2.72;0.95;;;;;;;5.88;74.63;102728.13;4991617;28;20043;-50
2023/02/27 04:31:56;;;;;;;2.15;0.98;;;;;;;5.88;74.83;102726.22;4994563;28;20383;-47
2023/02/27 04:34:31;;;;;;;3.25;0.85;;;;;;;5.88;74.37;102728.97;4991095;28;20046;-51
2023/02/27 04:37:24;;;;;;;7.80;1.58;;;;;;;5.88;74.21;102722.63;4984647;28;20042;-47
2023/02/27 04:39:52;;;;;;;3.85;0.77;;;;;;;5.89;74.18;102740.81;4988204;28;20042;-47
2023/02/27 04:42:24;;;;;;;2.58;0.70;;;;;;;5.86;73.97;102733.91;4990519;28;20081;-48
2023/02/27 04:44:54;;;;;;;2.97;0.50;;;;;;;5.84;73.83;102736.06;4990431;28;20057;-47
2023/02/27 04:47:23;;;;;;;3.83;0.73;;;;;;;5.82;73.68;102735.53;4989972;28;20049;-47
2023/02/27 04:49:57;;;;;;;2.30;0.75;;;;;;;5.82;73.72;102734.69;4990056;28;20058;-47
2023/02/27 04:52:30;;;;;;;4.20;0.80;;;;;;;5.81;73.48;102744.84;4990032;28;20050;-47
2023/02/27 04:55:13;;;;;;;1.02;0.80;;;;;;;5.80;73.68;102742.38;4984722;28;20058;-47
2023/02/27 04:57:49;;;;;;;3.88;0.50;;;;;;;5.81;73.41;102744.00;4990165;28;20490;-47
2023/02/27 05:00:20;;;;;;;5.70;0.68;;;;;;;5.80;73.49;102745.13;4990134;28;20466;-51
2023/02/27 05:02:53;;;;;;;2.42;0.50;;;;;;;5.79;73.48;102751.69;4994095;28;20464;-46
2023/02/27 05:05:25;;;;;;;3.15;0.63;;;;;;;5.79;73.43;102740.72;4990023;28;20137;-49
2023/02/27 05:07:58;;;;;;;;;;;;;;;5.79;73.26;102748.94;4990394;28;20057;-51
2023/02/27 05:10:33;;;;;;;5.32;1.88;;;;;;;5.78;73.42;102744.53;4987545;28;20295;-47
2023/02/27 05:13:15;;;;;;;4.35;0.77;;;;;;;5.77;73.24;102754.69;4980866;28;20051;-46
2023/02/27 05:15:58;;;;;;;3.63;0.65;;;;;;;5.78;73.10;102750.88;4990022;28;20038;-47
2023/02/27 05:18:25;;;;;;;2.08;0.55;;;;;;;5.78;73.04;102755.53;4989555;28;20054;-46
2023/02/27 05:21:05;;;;;;;3.85;1.10;;;;;;;5.77;73.08;102751.16;4989669;28;20129;-47
2023/02/27 05:23:38;;;;;;;5.10;0.90;;;;;;;5.77;73.16;102754.69;4989323;28;20061;-49
2023/02/27 05:26:26;;;;;;;1.83;0.70;;;;;;;5.78;73.17;102756.38;4989628;28;20389;-49
2023/02/27 05:29:06;;;;;;;2.90;1.23;;;;;;;5.80;73.11;102764.38;4984094;28;20509;-46
2023/02/27 05:31:55;;;;;;;1.83;0.50;;;;;;;5.80;73.21;102764.38;4993048;28;20140;-47
2023/02/27 05:34:28;;;;;;;1.13;0.50;;;;;;;5.79;73.01;102762.69;4989437;28;20125;-47
2023/02/27 05:36:58;;;;;;;;;;;;;;;5.75;73.01;102759.63;4990140;28;20508;-47
2023/02/27 05:39:29;;;;;;;1.42;0.40;;;;;;;5.75;72.96;102756.88;4989745;28;19930;-50
2023/02/27 05:42:03;;;;;;;1.95;0.60;;;;;;;5.75;73.42;102750.56;4989735;28;20051;-46
2023/02/27 05:44:34;;;;;;;2.13;0.50;;;;;;;5.73;72.74;102747.25;4988571;28;20046;-46
2023/02/27 05:47:06;;;;;;;3.72;0.50;;;;;;;5.73;72.81;102748.09;4989246;28;20396;-46
2023/02/27 05:49:42;;;;;;;3.00;0.43;;;;;;;5.74;73.01;102737.94;4989204;28;20038;-47
2023/02/27 05:52:13;;;;;;;3.17;0.30;;;;;;;5.74;72.57;102743.44;4990032;28;20400;-47
2023/02/27 05:54:50;;;;;;;2.22;0.77;;;;;;;5.75;72.64;102756.06;4989216;28;20089;-46
2023/02/27 05:57:42;;;;;;;0.90;0.50;;;;;;;5.76;72.42;102752.22;4988966;28;20050;-51
2023/02/27 06:00:13;;;;;;;2.30;0.45;;;;;;;5.77;72.47;102745.66;4989083;28;20050;-46
2023/02/27 06:02:42;;;;;;;4.20;0.80;;;;;;;5.78;72.53;102739.03;4991269;28;20046;-48
2023/02/27 06:05:10;;;;;;;6.57;0.90;;;;;;;5.79;72.81;102741.53;4989067;28;20042;-47
2023/02/27 06:07:38;;;;;;;2.92;0.50;;;;;;;5.79;72.35;102738.78;4989451;28;20057;-48
2023/02/27 06:10:05;;;;;;;5.55;0.52;;;;;;;5.80;72.36;102734.13;4988739;28;20046;-50
2023/02/27 06:12:32;;;;;;;1.73;0.50;;;;;;;5.81;72.51;102744.00;4988850;28;20512;-47
2023/02/27 06:14:59;;;;;;;2.22;0.40;;;;;;;5.80;72.55;102736.88;4989145;28;20085;-46
2023/02/27 06:17:25;;;;;;;5.50;0.60;;;;;;;5.78;72.69;102728.88;4976236;28;20412;-46
2023/02/27 06:19:52;;;;;;;3.72;1.08;;;;;;;5.80;72.29;102731.38;4988314;28;20042;-47
2023/02/27 06:22:19;;;;;;;3.15;0.40;;;;;;;5.79;72.50;102724.22;4978505;28;20061;-47
2023/02/27 06:24:45;;;;;;;2.78;0.50;;;;;;;5.81;72.58;102719.28;4992795;28;20057;-48
2023/02/27 06:27:12;;;;;;;2.80;0.45;;;;;;;5.82;72.41;102726.44;4992594;28;20480;-46
2023/02/27 06:29:39;;;;;;;7.07;0.80;;;;;;;5.83;72.60;102726.16;4981781;28;20096;-50
2023/02/27 06:32:05;;;;;;;2.10;0.40;;;;;;;5.83;72.43;102722.56;4992779;28;20039;-47
2023/02/27 06:34:32;;;;;;;1.42;0.47;;;;;;;5.83;72.47;102728.06;4992897;28;20042;-46
2023/02/27 06:36:59;;;;;;;5.03;0.93;;;;;;;5.85;72.44;102731.44;4985439;28;20568;-47
2023/02/27 06:39:29;;;;;;;10.93;0.77;;;;;;;5.86;72.79;102735.84;4992457;28;20096;-47
2023/02/27 06:41:56;;;;;;;4.15;0.75;;;;;;;5.85;72.83;102740.50;4992662;28;20089;-47
2023/02/27 06:44:22;;;;;;;5.20;0.90;;;;;;;5.85;72.84;102739.69;4992621;28;20058;-47
2023/02/27 06:46:49;;;;;;;4.00;1.38;;;;;;;5.84;72.73;102743.50;4992502;28;20054;-47
2023/02/27 06:49:16;;;;;;;4.13;0.88;;;;;;;5.85;72.72;102745.19;4974758;28;20454;-48
2023/02/27 06:51:42;;;;;;;1.98;0.80;;;;;;;5.84;72.63;102741.56;4974589;28;20046;-46
2023/02/27 06:54:10;;;;;;;1.75;0.80;;;;;;;5.83;72.34;102734.41;4991069;28;20148;-47
2023/02/27 06:56:37;;;;;;;3.47;1.00;;;;;;;5.84;72.63;102736.06;4992416;28;20075;-47
2023/02/27 06:59:04;;;;;;;3.08;1.08;;;;;;;5.84;72.36;102743.50;4992029;28;20388;-47
2023/02/27 07:01:31;;;;;;;6.03;1.00;;;;;;;5.86;72.71;102744.06;4992724;28;20050;-51
2023/02/27 07:03:59;;;;;;;3.72;1.10;;;;;;;5.86;72.56;102741.31;4996173;28;20121;-48
2023/02/27 07:06:26;;;;;;;5.55;0.80;;;;;;;5.87;72.49;102751.25;4992059;28;20034;-47
2023/02/27 07:09:13;;;;;;;9.05;1.17;;;;;;;5.88;72.42;102758.38;4991519;28;20034;-46
2023/02/27 07:11:40;;;;;;;3.45;0.88;;;;;;;5.88;72.69;102766.63;4985089;28;20491;-50
2023/02/27 07:14:06;;;;;;;2.58;1.00;;;;;;;5.88;72.53;102759.22;4991568;28;20511;-47
2023/02/27 07:16:33;;;;;;;1.00;0.90;;;;;;;5.87;72.63;102754.81;4991844;28;20050;-47
2023/02/27 07:19:00;;;;;;;5.75;1.15;;;;;;;5.88;72.83;102750.13;4991867;28;20050;-53
2023/02/27 07:21:26;;;;;;;6.55;1.38;;;;;;;5.89;72.51;102757.28;4991807;28;20057;-48
2023/02/27 07:23:53;;;;;;;4.00;0.90;;;;;;;5.90;72.86;102770.78;4991268;28;20046;-49
2023/02/27 07:26:20;;;;;;;1.75;1.02;;;;;;;5.91;72.79;102764.19;4991166;28;20520;-46
2023/02/27 07:28:46;;;;;;;9.25;1.00;;;;;;;5.93;73.15;102758.44;4990927;28;20057;-46
2023/02/27 07:31:13;;;;;;;3.38;1.05;;;;;;;5.92;72.89;102767.75;4998645;28;20056;-49
2023/02/27 07:33:40;;;;;;;2.38;1.00;;;;;;;5.91;72.95;102768.84;4973919;28;20046;-46
2023/02/27 07:36:07;;;;;;;6.45;1.33;;;;;;;5.91;72.95;102764.19;4991705;28;20082;-53
2023/02/27 07:38:34;;;;;;;2.67;0.95;;;;;;;5.91;72.82;102766.09;4991968;28;20049;-53
2023/02/27 07:41:00;;;;;;;2.83;1.17;;;;;;;5.90;72.91;102775.47;4992159;28;20042;-49
2023/02/27 07:43:27;;;;;;;7.43;1.10;;;;;;;5.91;73.14;102780.69;4989645;28;20042;-47
2023/02/27 07:45:54;;;;;;;6.45;1.48;;;;;;;5.90;72.95;102784.53;4985654;28;20046;-46
2023/02/27 07:48:20;;;;;;;2.90;0.70;;;;;;;5.89;72.91;102785.63;4991356;28;20050;-48
2023/02/27 07:50:47;;;;;;;4.78;1.08;;;;;;;5.89;72.83;102785.63;4991045;28;20443;-47
2023/02/27 07:53:14;;;;;;;2.55;1.20;;;;;;;5.89;72.75;102796.63;4991411;28;20508;-53
2023/02/27 07:55:40;;;;;;;1.70;0.60;;;;;;;5.88;72.87;102789.44;4991514;28;20104;-48
2023/02/27 07:58:07;;;;;;;2.63;0.50;;;;;;;5.87;72.91;102790.56;4991243;28;20042;-48
2023/02/27 08:00:34;;;;;;;5.45;0.57;;;;;;;5.86;72.56;102797.13;4990065;28;20512;-46
2023/02/27 08:03:00;;;;;;;2.50;0.70;;;;;;;5.86;72.62;102797.13;4978667;28;20049;-48
2023/02/27 08:05:27;;;;;;;5.82;0.88;;;;;;;5.86;72.70;102794.38;4991161;28;20089;-47
2023/02/27 08:07:54;;;;;;;2.40;0.60;;;;;;;5.88;72.47;102799.59;4990872;28;20406;-47
2023/02/27 08:10:21;;;;;;;3.13;0.60;;;;;;;5.87;72.51;102797.97;4990860;28;20049;-47
2023/02/27 08:12:47;;;;;;;3.10;0.50;;;;;;;5.85;72.25;102802.91;4973482;28;20543;-50
2023/02/27 08:15:14;;;;;;;2.67;0.70;;;;;;;5.86;72.40;102801.81;4990588;28;20052;-49
2023/02/27 08:17:41;;;;;;;3.58;0.82;;;;;;;5.86;71.97;102801.81;4987558;28;20352;-48
2023/02/27 08:20:10;;;;;;;2.05;0.90;;;;;;;5.87;72.37;102809.81;4986177;28;20053;-49
2023/02/27 08:22:37;;;;;;;3.03;0.93;;;;;;;5.88;72.19;102810.59;4973977;28;20046;-45
2023/02/27 08:25:06;;;;;;;5.07;0.73;;;;;;;5.89;72.03;102817.78;4990235;28;20062;-49
2023/02/27 08:27:33;;;;;;;1.52;0.73;;;;;;;5.88;72.19;102810.59;4990390;28;20060;-51
2023/02/27 08:30:00;;;;;;;4.45;0.82;;;;;;;5.88;71.89;102811.44;4996716;28;20052;-47
2023/02/27 08:32:27;;;;;;;2.53;1.42;;;;;;;5.91;72.23;102810.09;4990614;28;20522;-50
2023/02/27 08:34:54;;;;;;;1.08;0.55;;;;;;;5.95;72.48;102823.06;4988628;28;20046;-47
2023/02/27 08:37:21;;;;;;;0.57;0.40;;;;;;;5.97;72.08;102815.38;4990400;28;20045;-47
2023/02/27 08:39:48;;;;;;;3.72;0.90;;;;;;;5.96;72.09;102824.69;4990106;28;20042;-47
2023/02/27 08:42:15;;;;;;;1.77;0.60;;;;;;;5.98;72.26;102824.44;4990700;28;20046;-47
2023/02/27 08:44:41;;;;;;;5.40;0.77;;;;;;;6.03;71.93;102824.47;4989126;28;20073;-47
2023/02/27 08:47:08;;;;;;;3.90;0.40;;;;;;;6.01;71.87;102815.69;4989994;28;20137;-47
2023/02/27 08:49:35;;;;;;;0.52;0.50;;;;;;;6.02;71.97;102817.31;4972628;28;20507;-47
2023/02/27 08:52:04;;;;;;;1.48;0.40;;;;;;;6.01;71.75;102830.22;4990040;28;20132;-49
2023/02/27 08:54:31;;;;;;;4.10;0.82;;;;;;;6.01;71.66;102829.44;4991575;28;20582;-47
2023/02/27 08:56:58;;;;;;;4.97;0.70;;;;;;;6.00;71.78;102825.00;4988612;28;20138;-47
2023/02/27 08:59:25;;;;;;;1.27;1.10;;;;;;;6.02;71.89;102833.81;4989711;28;20621;-47
2023/02/27 09:01:52;;;;;;;1.52;0.55;;;;;;;6.02;71.87;102833.81;4991669;28;20053;-47
2023/02/27 09:04:19;;;;;;;5.07;0.90;;;;;;;6.02;71.98;102829.16;4992166;28;20057;-48
2023/02/27 09:06:46;;;;;;;0.60;0.50;;;;;;;6.03;71.49;102829.97;4989916;28;20097;-53
2023/02/27 09:09:13;;;;;;;6.03;1.00;;;;;;;6.08;71.49;102838.25;4985723;28;20504;-47
2023/02/27 09:11:40;;;;;;;4.97;2.53;;;;;;;6.10;71.49;102841.56;4978797;28;20474;-47
2023/02/27 09:14:07;;;;;;;0.60;0.30;;;;;;;6.12;71.41;102844.88;4990115;28;20046;-48
2023/02/27 09:16:34;;;;;;;3.03;0.50;;;;;;;6.11;71.51;102844.06;4989754;28;20078;-51
2023/02/27 09:19:01;;;;;;;2.90;0.47;;;;;;;6.13;71.34;102843.78;4971940;28;20038;-47
2023/02/27 09:21:28;;;;;;;7.50;0.90;;;;;;;6.16;70.92;102846.03;4989489;28;20043;-52
2023/02/27 09:23:57;;;;;;;2.15;0.43;;;;;;;6.19;71.19;102856.50;4976786;28;20061;-48
2023/02/27 09:26:37;;;;;;;7.07;0.98;;;;;;;6.21;70.75;102848.81;4980699;28;20051;-48
2023/02/27 09:29:12;;;;;;;1.17;0.40;;;;;;;6.23;70.98;102854.88;4975642;28;20541;-47
2023/02/27 09:31:38;;;;;;;1.95;0.40;;;;;;;6.24;71.03;102864.78;4992052;28;20058;-49
2023/02/27 09:34:05;;;;;;;2.60;0.68;;;;;;;6.26;70.70;102859.00;4989368;28;20104;-47
2023/02/27 09:36:32;;;;;;;1.42;0.40;;;;;;;6.25;70.75;102865.63;4989305;28;20046;-47
2023/02/27 09:38:58;;;;;;;0.65;0.22;;;;;;;6.26;70.58;102862.59;4989771;28;20038;-47
2023/02/27 09:41:53;;;;;;;1.83;0.75;;;;;;;6.28;70.26;102860.41;4989124;28;20034;-47
2023/02/27 09:44:27;;;;;;;6.00;0.90;;;;;;;6.31;70.42;102865.38;4986085;28;20050;-47
2023/02/27 09:47:27;;;;;;;1.90;0.95;;;;;;;6.37;70.52;102869.81;4989411;28;20100;-47
2023/02/27 09:49:53;;;;;;;;;;;;;;;6.41;70.49;102859.09;4989540;28;20049;-51
2023/02/27 09:52:20;;;;;;;1.08;0.57;;;;;;;6.44;70.42;102856.66;4971642;28;20497;-50
2023/02/27 09:54:48;;;;;;;2.75;2.05;;;;;;;6.46;70.69;102864.66;4989137;28;20137;-47
2023/02/27 09:57:23;;;;;;;2.88;0.95;;;;;;;6.47;70.18;102864.38;4995245;28;20150;-48
2023/02/27 09:59:55;;;;;;;4.85;0.80;;;;;;;6.53;70.47;102856.97;5000302;28;20049;-47
2023/02/27 10:02:52;;;;;;;3.35;0.40;;;;;;;6.56;70.25;102865.53;4996804;28;20046;-50
2023/02/27 10:05:54;;;;;;;7.72;3.60;;;;;;;6.61;70.17;102860.06;5009074;28;20045;-47
2023/02/27 10:08:44;;;;;;;1.13;0.30;;;;;;;6.63;70.18;102868.03;4942256;28;20454;-47
2023/02/27 10:11:16;;;;;;;1.35;0.30;;;;;;;6.66;70.47;102856.50;5008956;28;20045;-48
2023/02/27 10:13:45;;;;;;;3.03;0.73;;;;;;;6.66;70.28;102868.34;5009191;28;20057;-54
2023/02/27 10:16:16;;;;;;;1.30;0.70;;;;;;;6.72;70.45;102864.50;5008424;28;20374;-47
2023/02/27 10:18:54;;;;;;;0.80;0.50;;;;;;;6.88;70.32;102881.13;4989362;28;20535;-47
2023/02/27 10:21:34;;;;;;;2.45;0.40;;;;;;;6.93;70.31;102867.34;4988933;28;20054;-54
2023/02/27 10:24:13;;;;;;;2.08;0.40;;;;;;;7.09;70.14;102871.84;4989364;28;20065;-48
2023/02/27 10:26:43;;;;;;;1.85;0.30;;;;;;;7.27;70.20;102874.09;4989213;28;20082;-47
2023/02/27 10:29:17;;;;;;;0.30;0.22;;;;;;;7.41;70.11;102874.41;4974649;28;20050;-48
2023/02/27 10:31:49;;;;;;;0.20;0.20;;;;;;;7.33;69.63;102868.31;5008578;28;20054;-48
2023/02/27 10:34:16;;;;;;;1.98;0.30;;;;;;;7.31;69.91;102875.19;4998951;28;20042;-52
2023/02/27 10:36:45;;;;;;;1.45;0.20;;;;;;;7.37;69.73;102874.09;4989221;28;20050;-47
2023/02/27 10:39:17;;;;;;;0.55;0.20;;;;;;;7.35;69.75;102871.63;4989599;28;20050;-47
2023/02/27 10:41:45;;;;;;;1.42;0.20;;;;;;;7.29;69.70;102871.88;4989772;28;20042;-48
2023/02/27 10:44:19;;;;;;;1.20;0.20;;;;;;;7.25;69.73;102865.28;4989186;28;20054;-47
2023/02/27 10:46:47;;;;;;;0.47;0.30;;;;;;;7.25;70.01;102876.28;4989355;28;20038;-47
2023/02/27 10:49:21;;;;;;;3.28;0.43;;;;;;;7.33;69.80;102875.78;4989322;28;20058;-48
2023/02/27 10:52:15;;;;;;;5.20;0.82;;;;;;;7.46;69.86;102868.91;4988350;28;20049;-47
2023/02/27 10:54:42;;;;;;;1.77;0.65;;;;;;;7.60;69.90;102881.88;4987129;28;20058;-53
2023/02/27 10:57:34;;;;;;;0.85;0.65;;;;;;;7.66;69.32;102880.78;4989162;28;20134;-48
2023/02/27 11:00:05;;;;;;;0.43;0.10;;;;;;;7.64;69.23;102877.47;4989364;28;20051;-47
2023/02/27 11:02:38;;;;;;;0.35;0.10;;;;;;;7.67;69.44;102890.72;4997732;28;20291;-48
2023/02/27 11:05:27;;;;;;;1.50;0.20;;;;;;;7.67;69.31;102885.22;5008727;28;20057;-50
2023/02/27 11:08:19;;;;;;;1.35;0.63;;;;;;;7.62;68.82;102887.97;5003007;28;20089;-47
2023/02/27 11:11:26;;;;;;;0.67;0.23;;;;;;;7.47;68.75;102887.91;4992428;28;20050;-47
2023/02/27 11:14:13;;;;;;;1.13;0.20;;;;;;;7.30;68.96;102884.56;4989431;28;20120;-48
2023/02/27 11:17:19;;;;;;;2.92;0.68;;;;;;;7.21;69.20;102891.69;5011773;28;20052;-48
2023/02/27 11:19:46;;;;;;;1.02;0.35;;;;;;;7.14;69.38;102896.63;4985460;28;20133;-48
2023/02/27 11:22:19;;;;;;;1.42;0.50;;;;;;;7.16;70.11;102889.75;5011764;28;20197;-47
2023/02/27 11:24:47;;;;;;;6.97;0.95;;;;;;;7.26;70.35;102883.44;5006107;28;20064;-50
2023/02/27 11:27:27;;;;;;;3.22;0.70;;;;;;;7.33;70.19;102879.31;4990339;28;20084;-49
2023/02/27 11:30:02;;;;;;;0.95;0.20;;;;;;;7.35;70.09;102876.31;4994285;28;20039;-46
2023/02/27 11:32:47;;;;;;;0.43;0.20;;;;;;;7.39;70.00;102874.66;4991399;28;20100;-47
2023/02/27 11:35:31;;;;;;;1.15;0.40;;;;;;;7.48;70.25;102873.03;4989291;28;20054;-45
2023/02/27 11:38:02;;;;;;;2.40;0.28;;;;;;;7.60;70.10;102875.56;4990997;28;20042;-45
2023/02/27 11:40:36;;;;;;;6.53;1.42;;;;;;;7.78;70.25;102875.00;4991184;28;20050;-45
2023/02/27 11:43:13;;;;;;;1.65;0.40;;;;;;;7.96;70.21;102868.94;4981954;28;20046;-45
2023/02/27 11:45:41;;;;;;;1.83;0.47;;;;;;;8.07;70.16;102878.06;4989557;28;20527;-45
2023/02/27 11:48:30;;;;;;;16.48;2.95;;;;;;;8.06;70.37;102884.66;4990921;28;20042;-45
2023/02/27 11:51:10;;;;;;;2.97;0.40;;;;;;;8.07;70.50;102883.56;4990151;28;20054;-50
2023/02/27 11:53:56;;;;;;;0.95;0.30;;;;;;;8.11;70.72;102876.38;4987499;28;20057;-45
2023/02/27 11:56:52;;;;;;;0.93;0.10;;;;;;;8.12;70.35;102878.03;4991188;28;20050;-45
2023/02/27 11:59:25;;;;;;;2.15;0.25;;;;;;;8.06;70.51;102881.91;4966697;28;20058;-45
2023/02/27 12:02:00;;;;;;;4.68;0.50;;;;;;;8.08;70.31;102880.53;4991289;28;20394;-45
2023/02/27 12:04:40;;;;;;;0.60;0.40;;;;;;;8.02;70.16;102873.38;4991103;28;20060;-46